Time;durP1;ratioP1;P1;durP2;ratioP2;P2;SDS_P1;SDS_P2;PMS_P1;PMS_P2;Temp;Humidity;BMP_temperature;BMP_pressure;BME280_temperature;BME280_humidity;BME280_pressure;Samples;Min_cycle;Max_cycle;Signal;HPM_P1;HPM_P2
2022/03/02 00:01:38;;;;;;;32.15;28.65;;;6.40;99.90;;;;;;5093293;28;20401;-74
2022/03/02 00:04:04;;;;;;;32.38;28.73;;;6.40;99.90;;;;;;5093103;28;20048;-73
2022/03/02 00:06:30;;;;;;;32.75;28.17;;;6.40;99.90;;;;;;5093318;28;20401;-74
2022/03/02 00:08:56;;;;;;;33.60;28.98;;;6.40;99.90;;;;;;5107232;28;20531;-73
2022/03/02 00:11:22;;;;;;;31.83;27.90;;;6.30;99.90;;;;;;5096501;28;20036;-74
2022/03/02 00:13:48;;;;;;;32.20;28.80;;;6.30;99.90;;;;;;5105499;28;20043;-73
2022/03/02 00:16:14;;;;;;;33.13;29.45;;;6.30;99.90;;;;;;5113590;28;20044;-73
2022/03/02 00:18:40;;;;;;;33.08;29.33;;;6.30;99.90;;;;;;5102133;28;20048;-73
2022/03/02 00:21:06;;;;;;;33.20;29.45;;;6.30;99.90;;;;;;5092272;28;20044;-73
2022/03/02 00:23:32;;;;;;;33.13;29.17;;;6.30;99.90;;;;;;5094258;28;20043;-73
2022/03/02 00:25:58;;;;;;;34.55;29.83;;;6.30;99.90;;;;;;5092104;28;20046;-73
2022/03/02 00:28:24;;;;;;;36.30;29.33;;;6.40;99.90;;;;;;5093234;28;20123;-73
2022/03/02 00:30:50;;;;;;;34.90;30.88;;;6.30;99.90;;;;;;5092214;28;20497;-72
2022/03/02 00:33:16;;;;;;;34.92;31.13;;;6.30;99.90;;;;;;5101473;28;20054;-74
2022/03/02 00:35:42;;;;;;;36.05;31.92;;;6.30;99.90;;;;;;5112684;28;20435;-74
2022/03/02 00:38:10;;;;;;;37.05;31.25;;;6.30;99.90;;;;;;5105632;28;20052;-73
2022/03/02 00:40:37;;;;;;;34.20;30.10;;;6.30;99.90;;;;;;5093042;28;20052;-74
2022/03/02 00:43:04;;;;;;;37.55;32.05;;;6.30;99.90;;;;;;5097479;28;20039;-73
2022/03/02 00:45:31;;;;;;;36.22;31.38;;;6.30;99.90;;;;;;5113499;28;20047;-74
2022/03/02 00:47:58;;;;;;;36.47;31.55;;;6.30;99.90;;;;;;5108060;28;20070;-73
2022/03/02 00:50:24;;;;;;;36.63;31.85;;;6.30;99.90;;;;;;5092832;28;20122;-73
2022/03/02 00:52:50;;;;;;;35.33;30.80;;;6.30;99.90;;;;;;5092812;28;20573;-73
2022/03/02 00:55:16;;;;;;;38.92;32.10;;;6.30;99.90;;;;;;5092035;28;20044;-74
2022/03/02 00:57:42;;;;;;;39.00;31.70;;;6.30;99.90;;;;;;5092753;28;20067;-73
2022/03/02 01:00:09;;;;;;;35.25;30.77;;;6.30;99.90;;;;;;5091489;28;20051;-73
2022/03/02 01:02:36;;;;;;;36.03;31.33;;;6.30;99.90;;;;;;5092834;28;20102;-73
2022/03/02 01:05:02;;;;;;;34.92;31.13;;;6.20;99.90;;;;;;5112032;28;20047;-73
2022/03/02 01:07:28;;;;;;;36.05;31.83;;;6.20;99.90;;;;;;5106344;28;20044;-73
2022/03/02 01:09:54;;;;;;;35.03;30.80;;;6.20;99.90;;;;;;5091028;28;20055;-72
2022/03/02 01:12:20;;;;;;;36.75;31.67;;;6.10;99.90;;;;;;5109151;28;20055;-73
2022/03/02 01:14:45;;;;;;;36.17;30.67;;;6.10;99.90;;;;;;5097795;28;20043;-73
2022/03/02 01:17:11;;;;;;;36.10;31.52;;;6.10;99.90;;;;;;5091997;28;20040;-73
2022/03/02 01:19:38;;;;;;;34.92;30.60;;;6.10;99.90;;;;;;5104154;28;20580;-73
2022/03/02 01:22:05;;;;;;;36.85;31.30;;;6.10;99.90;;;;;;5092023;28;20048;-73
2022/03/02 01:24:31;;;;;;;38.35;31.65;;;6.10;99.90;;;;;;5102111;28;20118;-74
2022/03/02 01:26:57;;;;;;;34.28;30.67;;;6.10;99.90;;;;;;5105602;28;20323;-73
2022/03/02 01:29:23;;;;;;;36.38;31.25;;;6.10;99.90;;;;;;5092431;28;20048;-73
2022/03/02 01:31:49;;;;;;;37.05;31.63;;;6.00;99.90;;;;;;5096739;28;20043;-73
2022/03/02 01:48:34;;;;;;;36.45;32.53;;;5.90;99.90;;;;;;5264866;22;20552;-73
2022/03/02 01:51:00;;;;;;;35.75;31.88;;;5.90;99.90;;;;;;5051308;28;20041;-72
2022/03/02 01:53:26;;;;;;;38.28;32.58;;;5.90;99.90;;;;;;5034209;28;20099;-73
2022/03/02 01:55:54;;;;;;;38.00;32.85;;;5.90;99.90;;;;;;5051707;28;20127;-72
2022/03/02 01:58:20;;;;;;;39.28;33.13;;;5.80;99.90;;;;;;5052176;28;20045;-72
2022/03/02 02:00:46;;;;;;;38.10;32.65;;;5.80;99.90;;;;;;5051923;28;20122;-72
2022/03/02 02:03:11;;;;;;;38.03;32.67;;;5.80;99.90;;;;;;5052023;28;20127;-72
2022/03/02 02:05:37;;;;;;;37.53;33.00;;;5.80;99.90;;;;;;5052100;28;20049;-72
2022/03/02 02:08:03;;;;;;;37.75;31.75;;;5.70;99.90;;;;;;5051268;28;20077;-72
2022/03/02 02:10:29;;;;;;;37.22;31.45;;;5.70;99.90;;;;;;5053357;28;20123;-72
2022/03/02 02:12:55;;;;;;;36.80;32.55;;;5.70;99.90;;;;;;5055169;28;20091;-73
2022/03/02 02:15:21;;;;;;;39.38;33.70;;;5.70;99.90;;;;;;5037991;28;20080;-73
2022/03/02 02:17:47;;;;;;;38.95;33.35;;;5.70;99.90;;;;;;5055187;28;20375;-73
2022/03/02 02:20:13;;;;;;;36.75;31.95;;;5.70;99.90;;;;;;5055566;28;20167;-72
2022/03/02 02:22:41;;;;;;;38.70;33.42;;;5.70;99.90;;;;;;5055430;28;20048;-73
2022/03/02 02:25:07;;;;;;;40.38;32.83;;;5.70;99.90;;;;;;5037232;28;20533;-73
2022/03/02 02:27:33;;;;;;;38.20;32.05;;;5.70;99.90;;;;;;5055516;28;20049;-73
2022/03/02 02:30:00;;;;;;;39.83;33.42;;;5.70;99.90;;;;;;5054866;28;20045;-73
2022/03/02 02:32:26;;;;;;;37.90;33.05;;;5.70;99.90;;;;;;5055195;28;20080;-73
2022/03/02 02:34:52;;;;;;;39.05;33.08;;;5.70;99.90;;;;;;5037166;28;20130;-73
2022/03/02 02:37:18;;;;;;;38.47;32.80;;;5.70;99.90;;;;;;5054891;28;20497;-73
2022/03/02 02:39:57;;;;;;;38.75;33.65;;;5.60;99.90;;;;;;5037433;28;20612;-73
2022/03/02 02:42:24;;;;;;;38.08;32.83;;;5.60;99.90;;;;;;5055352;28;20045;-73
2022/03/02 02:44:50;;;;;;;40.60;33.22;;;5.60;99.90;;;;;;5054671;28;20045;-72
2022/03/02 02:47:15;;;;;;;41.10;33.80;;;5.60;99.90;;;;;;5054726;28;20057;-72
2022/03/02 02:49:41;;;;;;;39.65;33.55;;;5.60;99.90;;;;;;5054978;28;20081;-72
2022/03/02 02:52:07;;;;;;;39.92;33.83;;;5.60;99.90;;;;;;5036908;28;20623;-72
2022/03/02 02:54:33;;;;;;;40.67;34.70;;;5.60;99.90;;;;;;5054889;28;20103;-72
2022/03/02 02:56:58;;;;;;;38.65;34.13;;;5.60;99.90;;;;;;5036471;28;20049;-72
2022/03/02 02:59:24;;;;;;;38.45;32.65;;;5.60;99.90;;;;;;5037114;28;20128;-72
2022/03/02 03:01:51;;;;;;;40.28;34.05;;;5.60;99.90;;;;;;5054265;28;20128;-72
2022/03/02 03:04:16;;;;;;;38.22;33.33;;;5.60;99.90;;;;;;5054738;28;20045;-73
2022/03/02 03:06:42;;;;;;;40.03;33.72;;;5.60;99.90;;;;;;5054804;28;20048;-72
2022/03/02 03:09:08;;;;;;;37.90;33.22;;;5.60;99.90;;;;;;5054182;28;20620;-73
2022/03/02 03:11:38;;;;;;;35.97;31.98;;;5.50;99.90;;;;;;5054587;28;20045;-73
2022/03/02 03:14:12;;;;;;;38.25;32.15;;;5.60;99.90;;;;;;5054075;28;20080;-73
2022/03/02 03:16:39;;;;;;;39.83;32.10;;;5.50;99.90;;;;;;5053888;28;20555;-72
2022/03/02 03:19:05;;;;;;;37.47;32.83;;;5.50;99.90;;;;;;5054049;28;20040;-72
2022/03/02 03:21:31;;;;;;;36.83;32.80;;;5.50;99.90;;;;;;5053564;28;20510;-72
2022/03/02 03:23:57;;;;;;;39.58;33.20;;;5.50;99.90;;;;;;5053848;28;20045;-72
2022/03/02 03:26:23;;;;;;;39.42;33.90;;;5.50;99.90;;;;;;5036785;28;20533;-72
2022/03/02 03:28:49;;;;;;;38.70;33.80;;;5.50;99.90;;;;;;5054204;28;20147;-73
2022/03/02 03:31:15;;;;;;;40.95;34.70;;;5.40;99.90;;;;;;5053920;28;20060;-72
2022/03/02 03:33:40;;;;;;;40.10;32.95;;;5.50;99.90;;;;;;5054292;28;20040;-73
2022/03/02 03:36:06;;;;;;;39.60;32.33;;;5.40;99.90;;;;;;5053667;28;20500;-72
2022/03/02 03:38:32;;;;;;;36.95;32.90;;;5.40;99.90;;;;;;5054266;28;20045;-72
2022/03/02 03:40:58;;;;;;;38.20;32.38;;;5.40;99.90;;;;;;5053653;28;20052;-73
2022/03/02 03:43:23;;;;;;;40.83;33.45;;;5.50;99.90;;;;;;5053894;28;20127;-73
2022/03/02 03:45:49;;;;;;;36.70;31.92;;;5.40;99.90;;;;;;5053923;28;20037;-72
2022/03/02 03:48:15;;;;;;;37.95;32.95;;;5.40;99.90;;;;;;5053257;28;20065;-72
2022/03/02 03:50:42;;;;;;;40.65;33.95;;;5.40;99.90;;;;;;5035996;28;20064;-73
2022/03/02 03:53:08;;;;;;;39.22;32.17;;;5.30;99.90;;;;;;5053329;28;20118;-72
2022/03/02 03:55:34;;;;;;;39.95;33.45;;;5.30;99.90;;;;;;5035936;28;20045;-72
2022/03/02 03:58:00;;;;;;;39.42;33.38;;;5.30;99.90;;;;;;5053187;28;20045;-72
2022/03/02 04:00:26;;;;;;;38.70;32.60;;;5.30;99.90;;;;;;5053656;28;20040;-73
2022/03/02 04:02:51;;;;;;;39.92;32.28;;;5.30;99.90;;;;;;5053627;28;20052;-73
2022/03/02 04:05:17;;;;;;;39.75;33.45;;;5.30;99.90;;;;;;5053089;28;20041;-73
2022/03/02 04:07:44;;;;;;;37.50;31.95;;;5.20;99.90;;;;;;5053508;28;20051;-73
2022/03/02 04:10:10;;;;;;;40.00;33.15;;;5.20;99.90;;;;;;5052983;28;20557;-73
2022/03/02 04:12:36;;;;;;;38.45;33.33;;;5.20;99.90;;;;;;5053360;28;20080;-73
2022/03/02 04:15:04;;;;;;;39.40;32.80;;;5.20;99.90;;;;;;5052491;28;20129;-73
2022/03/02 04:17:30;;;;;;;39.13;32.83;;;5.30;99.90;;;;;;5053246;28;20452;-73
2022/03/02 04:19:56;;;;;;;38.80;32.22;;;5.30;99.90;;;;;;5035712;28;20049;-72
2022/03/02 04:22:21;;;;;;;40.90;32.13;;;5.30;99.90;;;;;;5052998;28;20134;-72
2022/03/02 04:24:47;;;;;;;39.35;31.85;;;5.20;99.90;;;;;;5053330;28;20080;-72
2022/03/02 04:27:13;;;;;;;37.75;32.55;;;5.30;99.90;;;;;;5052622;28;20123;-73
2022/03/02 04:29:39;;;;;;;39.20;33.25;;;5.20;99.90;;;;;;5052832;28;20079;-73
2022/03/02 04:32:06;;;;;;;37.85;33.08;;;5.20;99.90;;;;;;5052252;28;20048;-73
2022/03/02 04:34:31;;;;;;;41.78;33.47;;;5.20;99.90;;;;;;5053036;28;20048;-73
2022/03/02 04:36:57;;;;;;;39.45;32.28;;;5.20;99.90;;;;;;5052886;28;20048;-72
2022/03/02 04:39:23;;;;;;;40.55;33.15;;;5.20;99.90;;;;;;5052740;28;20045;-72
2022/03/02 04:41:49;;;;;;;40.75;33.72;;;5.20;99.90;;;;;;5035448;28;20397;-72
2022/03/02 04:44:15;;;;;;;40.08;33.10;;;5.20;99.90;;;;;;5052470;28;20052;-72
2022/03/02 04:46:40;;;;;;;39.42;33.10;;;5.10;99.90;;;;;;5034984;28;20398;-71
2022/03/02 04:49:17;;;;;;;39.05;33.30;;;5.10;99.90;;;;;;5052137;28;20057;-72
2022/03/02 04:51:43;;;;;;;39.45;33.00;;;5.10;99.90;;;;;;5052751;28;20479;-73
2022/03/02 04:55:05;;;;;;;36.30;32.05;;;5.20;99.90;;;;;;5034630;28;20045;-73
2022/03/02 04:56:55;;;;;;;37.65;32.45;;;5.10;99.90;;;;;;5052595;28;20045;-73
2022/03/02 04:59:20;;;;;;;39.13;32.53;;;5.10;99.90;;;;;;5052230;28;20205;-72
2022/03/02 05:01:46;;;;;;;38.97;31.65;;;5.10;99.90;;;;;;5052635;28;20623;-72
2022/03/02 05:04:12;;;;;;;37.90;32.22;;;5.10;99.90;;;;;;5034750;28;20060;-72
2022/03/02 05:06:37;;;;;;;39.83;32.75;;;5.10;99.90;;;;;;5034981;28;20394;-72
2022/03/02 05:09:03;;;;;;;38.90;32.45;;;5.00;99.90;;;;;;5052176;28;20051;-72
2022/03/02 05:11:29;;;;;;;37.25;32.70;;;5.00;99.90;;;;;;5034647;28;20053;-72
2022/03/02 05:13:55;;;;;;;39.22;32.85;;;5.00;99.90;;;;;;5034922;28;20051;-72
2022/03/02 05:16:21;;;;;;;40.72;33.47;;;5.00;99.90;;;;;;5051929;28;20047;-72
2022/03/02 05:18:47;;;;;;;39.55;32.60;;;5.00;99.90;;;;;;5052498;28;20049;-72
2022/03/02 05:21:14;;;;;;;38.05;32.15;;;5.00;99.90;;;;;;5052049;28;20119;-72
2022/03/02 05:23:39;;;;;;;40.10;33.45;;;5.00;99.90;;;;;;5034923;28;20410;-72
2022/03/02 05:26:05;;;;;;;42.35;33.72;;;5.00;99.90;;;;;;5052072;28;20045;-72
2022/03/02 05:28:31;;;;;;;38.58;33.17;;;5.00;99.90;;;;;;5052436;28;20045;-72
2022/03/02 05:30:57;;;;;;;38.33;33.47;;;4.90;99.90;;;;;;5052421;28;20041;-72
2022/03/02 05:33:22;;;;;;;39.35;32.40;;;5.00;99.90;;;;;;5052039;28;20053;-73
2022/03/02 05:35:48;;;;;;;36.90;32.25;;;4.90;99.90;;;;;;5052479;28;20493;-73
2022/03/02 05:38:14;;;;;;;37.33;32.65;;;4.90;99.90;;;;;;5051929;28;20124;-73
2022/03/02 05:40:39;;;;;;;41.42;34.50;;;4.90;99.90;;;;;;5052301;28;20546;-73
2022/03/02 05:43:05;;;;;;;40.22;33.78;;;4.90;99.90;;;;;;5052289;28;20044;-73
2022/03/02 05:45:30;;;;;;;41.10;34.30;;;4.90;99.90;;;;;;5053830;28;20041;-72
2022/03/02 05:47:56;;;;;;;39.58;33.63;;;4.90;99.90;;;;;;5055462;28;20139;-72
2022/03/02 05:50:22;;;;;;;40.50;33.35;;;4.80;99.90;;;;;;5038070;28;20045;-72
2022/03/02 05:52:47;;;;;;;39.42;33.33;;;4.80;99.90;;;;;;5056105;28;20049;-73
2022/03/02 05:55:13;;;;;;;41.47;34.45;;;4.80;99.90;;;;;;5055521;28;20102;-72
2022/03/02 05:57:39;;;;;;;39.30;33.17;;;4.80;99.90;;;;;;5055938;28;20486;-72
2022/03/02 06:00:06;;;;;;;37.28;31.98;;;4.80;99.90;;;;;;5056072;28;20044;-72
2022/03/02 06:02:32;;;;;;;41.03;35.13;;;4.80;99.90;;;;;;5055715;28;20131;-73
2022/03/02 06:04:58;;;;;;;39.70;34.42;;;4.80;99.90;;;;;;5055818;28;20111;-72
2022/03/02 06:07:23;;;;;;;41.20;34.17;;;4.80;99.90;;;;;;5055339;28;20453;-72
2022/03/02 06:09:49;;;;;;;40.90;35.00;;;4.80;99.90;;;;;;5055724;28;20041;-72
2022/03/02 06:12:16;;;;;;;41.35;33.10;;;4.80;99.90;;;;;;5037684;28;20060;-72
2022/03/02 06:14:42;;;;;;;41.10;34.80;;;4.80;99.90;;;;;;5038112;28;20049;-72
2022/03/02 06:17:09;;;;;;;43.08;34.78;;;4.80;99.90;;;;;;5055648;28;20093;-72
2022/03/02 06:19:35;;;;;;;41.28;34.58;;;4.80;99.90;;;;;;5054957;28;20494;-72
2022/03/02 06:22:03;;;;;;;41.88;34.95;;;4.80;99.90;;;;;;5055567;28;20402;-72
2022/03/02 06:24:30;;;;;;;41.03;34.60;;;4.80;99.90;;;;;;5055020;28;20508;-72
2022/03/02 06:26:56;;;;;;;42.35;35.17;;;4.80;99.90;;;;;;5055515;28;20080;-72
2022/03/02 06:29:21;;;;;;;38.25;33.67;;;4.90;99.90;;;;;;5054977;28;20442;-72
2022/03/02 06:31:47;;;;;;;40.85;34.13;;;4.80;99.90;;;;;;5055368;28;20064;-72
2022/03/02 06:34:13;;;;;;;39.83;33.72;;;4.80;99.90;;;;;;5054852;28;20139;-72
2022/03/02 06:36:39;;;;;;;38.70;33.28;;;4.80;99.90;;;;;;5055187;28;20041;-72
2022/03/02 06:39:05;;;;;;;39.40;33.33;;;4.80;99.90;;;;;;5055203;28;20059;-72
2022/03/02 06:41:51;;;;;;;39.67;33.60;;;4.80;99.90;;;;;;5036912;28;20052;-72
2022/03/02 06:44:38;;;;;;;39.60;34.08;;;4.80;99.90;;;;;;5054760;28;20512;-72
2022/03/02 06:47:11;;;;;;;38.15;33.97;;;4.80;99.90;;;;;;5054924;28;20063;-71
2022/03/02 06:49:59;;;;;;;41.63;34.13;;;4.80;99.90;;;;;;5054601;28;20049;-72
2022/03/02 06:52:34;;;;;;;41.75;34.00;;;4.80;99.90;;;;;;5054682;28;20053;-72
2022/03/02 06:55:06;;;;;;;40.63;34.28;;;4.90;99.90;;;;;;5054671;28;20517;-72
2022/03/02 06:57:32;;;;;;;38.33;33.15;;;4.90;99.90;;;;;;5053400;28;20405;-72
2022/03/02 07:00:06;;;;;;;40.03;32.83;;;4.90;99.90;;;;;;5054776;28;20144;-72
2022/03/02 07:02:46;;;;;;;39.35;33.80;;;5.00;99.90;;;;;;5054454;28;20402;-73
2022/03/02 07:05:12;;;;;;;40.57;33.87;;;5.00;99.90;;;;;;5054857;28;20067;-72
2022/03/02 07:07:38;;;;;;;41.00;33.42;;;5.10;99.90;;;;;;5054300;28;20053;-72
2022/03/02 07:10:06;;;;;;;39.30;32.03;;;5.10;99.90;;;;;;5054527;28;20497;-72
2022/03/02 07:12:32;;;;;;;40.95;33.17;;;5.20;99.90;;;;;;5036635;28;20103;-73
2022/03/02 07:14:58;;;;;;;39.00;33.42;;;5.20;99.90;;;;;;5054409;28;20478;-72
2022/03/02 07:17:26;;;;;;;38.90;32.40;;;5.20;99.90;;;;;;5054112;28;20048;-72
2022/03/02 07:19:53;;;;;;;39.42;32.60;;;5.20;99.90;;;;;;5054001;28;20480;-73
2022/03/02 07:22:22;;;;;;;38.13;32.75;;;5.20;99.90;;;;;;5054079;28;20045;-72
2022/03/02 07:24:53;;;;;;;40.25;32.40;;;5.20;99.90;;;;;;5054501;28;20048;-72
2022/03/02 07:27:19;;;;;;;41.42;34.03;;;5.30;99.90;;;;;;5053751;28;20494;-72
2022/03/02 07:29:49;;;;;;;37.40;32.10;;;5.30;99.90;;;;;;5054231;28;20156;-73
2022/03/02 07:32:21;;;;;;;40.08;32.60;;;5.30;99.90;;;;;;5053934;28;20517;-72
2022/03/02 07:34:48;;;;;;;37.70;31.73;;;5.30;99.90;;;;;;5054228;28;20045;-73
2022/03/02 07:37:14;;;;;;;36.15;31.58;;;5.40;99.90;;;;;;5054096;28;20048;-73
2022/03/02 07:39:42;;;;;;;37.55;31.42;;;5.40;99.90;;;;;;5053548;28;20041;-72
2022/03/02 07:42:07;;;;;;;38.47;31.70;;;5.40;99.90;;;;;;5053984;28;20045;-72
2022/03/02 07:44:33;;;;;;;35.45;30.83;;;5.50;99.90;;;;;;5053532;28;20052;-73
2022/03/02 07:46:59;;;;;;;35.63;30.65;;;5.50;99.90;;;;;;5053766;28;20076;-72
2022/03/02 07:49:25;;;;;;;37.33;30.90;;;5.60;99.90;;;;;;5053544;28;20520;-73
2022/03/02 07:51:53;;;;;;;38.53;31.30;;;5.60;99.90;;;;;;5036099;28;20056;-72
2022/03/02 07:54:21;;;;;;;35.33;30.15;;;5.60;99.90;;;;;;5053833;28;20084;-72
2022/03/02 07:56:48;;;;;;;37.58;29.75;;;5.70;99.90;;;;;;5053245;28;20446;-72
2022/03/02 07:59:15;;;;;;;35.67;30.42;;;5.80;99.90;;;;;;5036176;28;20057;-72
2022/03/02 08:01:42;;;;;;;32.80;27.92;;;5.90;99.90;;;;;;5035666;28;20136;-72
2022/03/02 08:04:10;;;;;;;32.28;28.05;;;6.10;99.90;;;;;;5035817;28;20055;-72
2022/03/02 08:06:38;;;;;;;32.97;27.77;;;6.30;99.90;;;;;;5052835;28;20500;-72
2022/03/02 08:09:07;;;;;;;29.90;26.05;;;6.60;99.90;;;;;;5052974;28;20552;-73
2022/03/02 08:11:34;;;;;;;31.73;26.58;;;6.70;99.90;;;;;;5053060;28;20045;-72
2022/03/02 08:14:03;;;;;;;31.23;27.50;;;6.90;99.90;;;;;;5053363;28;20379;-72
2022/03/02 08:16:30;;;;;;;32.10;27.00;;;7.10;99.90;;;;;;5052877;28;20052;-73
2022/03/02 08:19:04;;;;;;;31.73;27.15;;;7.20;99.90;;;;;;5035568;28;20049;-73
2022/03/02 08:21:31;;;;;;;29.88;26.63;;;7.30;99.70;;;;;;5052991;28;20045;-73
2022/03/02 08:23:59;;;;;;;30.23;24.92;;;7.20;99.90;;;;;;5052809;28;20498;-73
2022/03/02 08:26:25;;;;;;;30.05;26.33;;;7.20;98.20;;;;;;5053122;28;20045;-73
2022/03/02 08:29:00;;;;;;;28.05;24.35;;;7.00;96.40;;;;;;5053081;28;20120;-73
2022/03/02 08:31:27;;;;;;;28.77;25.20;;;7.00;97.00;;;;;;5052810;28;20084;-73
2022/03/02 08:33:54;;;;;;;31.17;26.30;;;6.90;97.60;;;;;;5053352;28;20353;-73
2022/03/02 08:36:23;;;;;;;32.22;26.27;;;6.90;98.50;;;;;;5052528;28;20084;-73
2022/03/02 08:38:53;;;;;;;28.73;24.60;;;6.90;98.40;;;;;;5052564;28;20445;-73
2022/03/02 08:41:20;;;;;;;29.00;25.23;;;6.90;97.50;;;;;;5034769;28;20457;-73
2022/03/02 08:43:46;;;;;;;31.73;25.27;;;6.80;97.50;;;;;;5034788;28;20500;-73
2022/03/02 08:46:14;;;;;;;28.95;25.77;;;6.90;97.00;;;;;;5052535;28;20119;-74
2022/03/02 08:48:41;;;;;;;30.98;25.83;;;6.90;97.90;;;;;;5052424;28;20064;-74
2022/03/02 08:51:07;;;;;;;28.63;25.15;;;7.00;98.40;;;;;;5053027;28;20474;-74
2022/03/02 08:53:33;;;;;;;28.92;25.48;;;7.40;99.20;;;;;;5052576;28;20548;-74
2022/03/02 08:56:01;;;;;;;28.17;24.60;;;7.90;96.20;;;;;;5052637;28;20048;-74
2022/03/02 08:58:28;;;;;;;27.52;23.00;;;8.30;95.10;;;;;;5052733;28;20060;-73
2022/03/02 09:00:56;;;;;;;26.83;23.77;;;8.80;93.00;;;;;;5052805;28;20057;-74
2022/03/02 09:03:23;;;;;;;27.73;24.15;;;9.20;90.00;;;;;;5052860;28;20049;-74
2022/03/02 09:05:49;;;;;;;25.30;22.38;;;9.60;86.80;;;;;;5052197;28;20102;-74
2022/03/02 09:08:15;;;;;;;24.58;21.88;;;9.80;81.70;;;;;;5052599;28;20041;-75
2022/03/02 09:10:42;;;;;;;27.15;23.23;;;10.10;79.40;;;;;;5052279;28;20048;-74
2022/03/02 09:13:10;;;;;;;25.88;21.13;;;10.40;79.50;;;;;;5051118;28;20059;-74
2022/03/02 09:15:37;;;;;;;23.77;21.17;;;10.60;75.00;;;;;;5047209;28;20076;-74
2022/03/02 09:18:04;;;;;;;22.08;18.98;;;11.00;73.80;;;;;;5048857;28;20053;-74
2022/03/02 09:20:31;;;;;;;22.15;19.48;;;10.90;68.80;;;;;;5051922;28;20149;-73
2022/03/02 09:22:59;;;;;;;22.45;19.75;;;10.70;66.70;;;;;;5053970;28;20048;-74
2022/03/02 09:25:27;;;;;;;23.58;21.08;;;10.60;63.10;;;;;;5054626;28;20045;-74
2022/03/02 09:27:55;;;;;;;22.17;19.70;;;10.60;65.40;;;;;;5054474;28;20088;-74
2022/03/02 09:30:21;;;;;;;21.30;18.85;;;10.70;68.00;;;;;;5053832;28;20041;-74
2022/03/02 09:32:55;;;;;;;21.52;19.23;;;10.80;65.40;;;;;;5054002;28;20544;-74
2022/03/02 09:35:21;;;;;;;21.92;19.02;;;11.00;65.00;;;;;;5054031;28;20123;-74
2022/03/02 09:37:53;;;;;;;21.50;18.63;;;11.10;63.90;;;;;;5053820;28;20056;-74
2022/03/02 09:40:30;;;;;;;22.30;17.95;;;11.30;62.10;;;;;;5054283;28;20457;-73
2022/03/02 09:42:57;;;;;;;20.85;18.70;;;11.40;62.00;;;;;;5053775;28;20076;-73
2022/03/02 09:45:26;;;;;;;21.63;19.33;;;11.40;61.50;;;;;;5054225;28;20037;-74
2022/03/02 09:47:57;;;;;;;22.63;18.27;;;11.30;61.70;;;;;;5053662;28;20476;-74
2022/03/02 09:50:31;;;;;;;22.17;18.13;;;11.20;59.70;;;;;;5054405;28;20098;-74
2022/03/02 09:53:00;;;;;;;22.15;19.40;;;11.10;59.30;;;;;;5053839;28;20080;-74
2022/03/02 09:55:26;;;;;;;23.98;19.55;;;11.00;62.50;;;;;;5054173;28;20033;-73
2022/03/02 09:57:55;;;;;;;23.05;19.30;;;11.40;59.80;;;;;;5053506;28;20710;-73
2022/03/02 10:00:22;;;;;;;24.25;19.88;;;11.50;60.00;;;;;;5035763;28;20460;-74
2022/03/02 10:02:51;;;;;;;22.40;19.55;;;11.50;59.60;;;;;;5053277;28;20419;-74
2022/03/02 10:05:24;;;;;;;21.00;18.85;;;11.30;61.60;;;;;;5053880;28;20136;-74
2022/03/02 10:08:23;;;;;;;22.00;19.00;;;11.30;62.70;;;;;;5053516;28;20044;-74
2022/03/02 10:10:49;;;;;;;22.15;19.40;;;11.30;60.70;;;;;;5051043;28;20135;-74
2022/03/02 10:13:17;;;;;;;22.83;20.33;;;11.30;60.90;;;;;;5053845;28;20049;-74
2022/03/02 10:15:44;;;;;;;23.67;19.88;;;11.30;62.40;;;;;;5052969;28;20091;-74
2022/03/02 10:18:12;;;;;;;21.48;19.20;;;11.10;62.30;;;;;;5053630;28;20129;-74
2022/03/02 10:20:41;;;;;;;23.17;19.63;;;11.10;63.30;;;;;;5053121;28;20083;-74
2022/03/02 10:23:35;;;;;;;21.63;19.23;;;11.00;63.00;;;;;;5053352;28;20132;-74
2022/03/02 10:26:05;;;;;;;23.45;19.45;;;11.10;61.70;;;;;;5053184;28;20045;-74
2022/03/02 10:28:58;;;;;;;23.15;19.05;;;11.00;61.30;;;;;;5053335;28;20052;-74
2022/03/02 10:31:46;;;;;;;22.35;19.52;;;11.00;62.50;;;;;;5052859;28;20072;-74
2022/03/02 10:34:36;;;;;;;22.30;19.17;;;11.00;61.70;;;;;;5053106;28;20055;-73
2022/03/02 10:37:07;;;;;;;22.07;19.63;;;10.70;61.80;;;;;;5052893;28;20087;-74
2022/03/02 10:40:05;;;;;;;21.75;19.35;;;10.60;64.50;;;;;;5053481;28;20049;-75
2022/03/02 10:42:33;;;;;;;24.73;19.15;;;10.60;64.30;;;;;;5053456;28;20099;-74
2022/03/02 10:45:05;;;;;;;21.85;18.92;;;10.70;64.80;;;;;;5052423;28;20114;-74
2022/03/02 10:47:33;;;;;;;19.55;17.45;;;10.60;62.90;;;;;;5053001;28;20057;-74
2022/03/02 10:50:02;;;;;;;21.88;18.63;;;10.70;62.40;;;;;;5052574;28;20414;-74
2022/03/02 10:52:29;;;;;;;20.65;18.35;;;10.70;62.40;;;;;;5052643;28;20128;-74
2022/03/02 10:55:03;;;;;;;22.30;18.88;;;10.60;62.60;;;;;;5052935;28;20091;-74
2022/03/02 10:57:32;;;;;;;20.15;17.95;;;10.60;63.10;;;;;;5052679;28;20052;-73
2022/03/02 11:00:09;;;;;;;20.42;18.02;;;10.40;60.90;;;;;;5052379;28;20204;-74
2022/03/02 11:02:39;;;;;;;19.77;17.70;;;10.30;61.00;;;;;;5052889;28;20095;-74
2022/03/02 11:05:08;;;;;;;21.17;18.60;;;10.30;62.60;;;;;;5052887;28;20107;-74
2022/03/02 11:07:35;;;;;;;22.20;18.70;;;10.20;62.40;;;;;;5052451;28;20040;-73
2022/03/02 11:10:03;;;;;;;19.30;16.70;;;10.10;61.80;;;;;;5052339;28;20131;-74
2022/03/02 11:12:29;;;;;;;22.17;18.80;;;9.90;61.10;;;;;;5052780;28;20048;-74
2022/03/02 11:15:05;;;;;;;20.45;18.20;;;9.90;61.60;;;;;;5051556;28;20095;-73
2022/03/02 11:17:31;;;;;;;22.15;18.80;;;9.80;61.50;;;;;;5052376;28;20068;-73
2022/03/02 11:19:57;;;;;;;20.63;18.42;;;9.70;62.90;;;;;;5051935;28;20095;-74
2022/03/02 11:22:25;;;;;;;21.38;18.15;;;9.70;62.40;;;;;;5051919;28;20076;-74
2022/03/02 11:24:57;;;;;;;22.73;18.33;;;9.70;63.40;;;;;;5051779;28;20443;-73
2022/03/02 11:27:30;;;;;;;22.60;18.42;;;9.80;62.80;;;;;;5051987;28;20483;-73
2022/03/02 11:30:11;;;;;;;20.13;17.40;;;9.80;64.00;;;;;;5051885;28;20053;-73
2022/03/02 11:32:38;;;;;;;;;;;9.90;63.60;;;;;;5052938;28;20049;-73
2022/03/02 11:35:05;;;;;;;21.45;18.60;;;10.00;62.40;;;;;;5051956;28;19920;-74
2022/03/02 11:37:32;;;;;;;21.88;18.10;;;10.00;61.50;;;;;;5051662;28;20553;-73
2022/03/02 11:39:58;;;;;;;20.50;17.88;;;10.00;61.40;;;;;;5051713;28;20437;-73
2022/03/02 11:42:32;;;;;;;20.27;17.00;;;10.00;61.80;;;;;;5051608;28;20045;-73
2022/03/02 11:44:59;;;;;;;20.85;18.02;;;10.00;59.70;;;;;;5051207;28;20059;-73
2022/03/02 11:47:37;;;;;;;20.20;17.25;;;10.10;62.60;;;;;;5051842;28;20438;-72
2022/03/02 11:50:09;;;;;;;18.52;15.98;;;10.20;60.70;;;;;;5051110;28;20485;-73
2022/03/02 11:52:45;;;;;;;21.17;17.20;;;10.30;57.90;;;;;;5051877;28;20049;-73
2022/03/02 11:55:16;;;;;;;18.80;16.88;;;10.30;59.00;;;;;;5033817;28;20040;-74
2022/03/02 11:57:48;;;;;;;18.80;16.38;;;10.20;60.20;;;;;;5052076;28;20342;-73
2022/03/02 12:00:17;;;;;;;18.00;16.05;;;10.30;56.60;;;;;;5051272;28;20090;-74
2022/03/02 12:02:47;;;;;;;18.50;15.80;;;10.30;56.70;;;;;;5051865;28;20053;-73
2022/03/02 12:05:15;;;;;;;19.00;15.73;;;10.30;56.60;;;;;;5033815;28;20056;-73
2022/03/02 12:07:43;;;;;;;19.67;16.15;;;10.30;55.70;;;;;;5051228;28;20040;-73
2022/03/02 12:10:22;;;;;;;18.63;15.98;;;10.30;56.50;;;;;;5051332;28;20049;-74
2022/03/02 12:12:49;;;;;;;20.15;16.23;;;10.30;56.60;;;;;;5050970;28;20052;-74
2022/03/02 12:15:15;;;;;;;18.45;16.35;;;10.20;56.90;;;;;;5051549;28;20506;-74
2022/03/02 12:17:41;;;;;;;18.10;16.13;;;10.20;56.80;;;;;;5051462;28;20044;-74
2022/03/02 12:20:11;;;;;;;17.88;15.98;;;10.20;55.90;;;;;;5050565;28;20041;-73
2022/03/02 12:22:40;;;;;;;19.48;17.30;;;10.10;57.20;;;;;;5051470;28;20143;-73
2022/03/02 12:25:12;;;;;;;17.50;15.70;;;10.20;58.00;;;;;;5050759;28;20049;-73
2022/03/02 12:27:39;;;;;;;17.55;15.55;;;10.20;57.30;;;;;;5051170;28;20071;-73
2022/03/02 12:30:09;;;;;;;18.65;15.25;;;10.10;57.20;;;;;;5050828;28;20056;-73
2022/03/02 12:32:37;;;;;;;18.25;16.15;;;10.20;55.20;;;;;;5051063;28;20049;-73
2022/03/02 12:35:09;;;;;;;19.10;16.10;;;10.30;56.70;;;;;;5050715;28;20049;-73
2022/03/02 12:37:35;;;;;;;18.75;15.38;;;10.30;56.90;;;;;;5050935;28;20076;-73
2022/03/02 12:40:10;;;;;;;17.38;15.18;;;10.30;56.10;;;;;;5050896;28;20048;-73
2022/03/02 12:42:42;;;;;;;19.13;16.42;;;10.40;56.40;;;;;;5050672;28;20087;-72
2022/03/02 12:45:08;;;;;;;18.33;15.40;;;10.40;56.10;;;;;;5050923;28;20040;-74
2022/03/02 12:47:35;;;;;;;18.30;16.35;;;10.40;56.10;;;;;;5050931;28;20045;-74
2022/03/02 12:50:04;;;;;;;17.95;15.70;;;10.30;56.60;;;;;;5049759;28;20538;-73
2022/03/02 12:52:30;;;;;;;17.08;15.27;;;10.30;57.70;;;;;;5050183;28;20097;-74
2022/03/02 12:54:58;;;;;;;18.70;15.40;;;10.30;57.70;;;;;;5048833;28;20040;-73